»·PEaware :: CAX948 KVIS-KSNA

CAX948 :: KVIS-KSNA

FLIGHT INFORMATION

Flight Status: Arrived
Operator:
California Airlines (website)
More flights by this operator :: More flights under this callsign
Pilot: Tony D. (5369)
Aircraft: CESSNA 208 CARAVAN
(C208)
More flights by this aircraft type
Origin: KVIS Visalia Mun
United States
Destination: KSNA John Wayne-Orange Co
United States
More flights between these airports :: More routes between these airports
Route: +PIXEY V23 EHF V165 AMONT V459 SLI
File this flight plan on PilotEdge
Remarks:
Altitude:
(Current/Filed)
13,000ft
Speed:
(Current/Filed)
170kts
Departed: 03-Dec-18 09:37 AM
Arrived: 03-Dec-18 10:53 AM
Distance/Time
Traveled:
175nm/1:16
Distance/Time
To Go:
Arrived

Flight Plot

Page will automatically refresh every two minutes.

Flight plan parsing failed; only flown route is shown


Map Options




Map Legend


Flown Route
Filed Route
Departure Airport
Arrival Airport
Navaid (VOR, NDB)
Fix

Horizontal Profiles

Position Reports

Time Latitude Longitude Heading Altitude Ground
Speed
03-Dec-18 09:19 36.325110 -119.398195 267 297ft 0kts
03-Dec-18 09:20 36.325110 -119.398195 267 297ft 0kts
03-Dec-18 09:21 36.325110 -119.398195 267 297ft 0kts
03-Dec-18 09:22 36.325110 -119.398195 267 297ft 0kts
03-Dec-18 09:23 36.325110 -119.398195 267 297ft 0kts
03-Dec-18 09:24 36.325110 -119.398195 267 297ft 0kts
03-Dec-18 09:25 36.325110 -119.398195 267 297ft 0kts
03-Dec-18 09:26 36.325110 -119.398195 267 297ft 0kts
03-Dec-18 09:27 36.325110 -119.398195 267 297ft 0kts
03-Dec-18 09:28 36.325110 -119.398195 267 297ft 0kts
03-Dec-18 09:29 36.325110 -119.398195 267 297ft 0kts
03-Dec-18 09:30 36.325110 -119.398195 267 297ft 0kts
03-Dec-18 09:31 36.325110 -119.398195 267 297ft 0kts
03-Dec-18 09:32 36.325110 -119.398195 267 297ft 0kts
03-Dec-18 09:33 36.325110 -119.398195 267 297ft 0kts
03-Dec-18 09:34 36.325110 -119.398195 267 297ft 0kts
03-Dec-18 09:35 36.325110 -119.398195 267 297ft 0kts
03-Dec-18 09:36 36.324782 -119.398372 181 297ft 6kts
03-Dec-18 09:37 36.322108 -119.395433 133 297ft 17kts
03-Dec-18 09:38 36.318891 -119.391482 134 297ft 20kts
03-Dec-18 09:39 36.315435 -119.388875 317 297ft 7kts
03-Dec-18 09:40 36.327461 -119.401904 327 611ft 111kts
03-Dec-18 09:41 36.327692 -119.437124 173 1646ft 115kts
03-Dec-18 09:42 36.302555 -119.437911 181 2384ft 104kts
03-Dec-18 09:43 36.270543 -119.439650 181 3416ft 94kts
03-Dec-18 09:44 36.247449 -119.440184 177 4098ft 110kts
03-Dec-18 09:45 36.209953 -119.435972 169 4928ft 118kts
03-Dec-18 09:46 36.183117 -119.429045 164 5514ft 118kts
03-Dec-18 09:47 36.151482 -119.419296 165 6211ft 118kts
03-Dec-18 09:48 36.119655 -119.409643 164 6918ft 122kts
03-Dec-18 09:49 36.086775 -119.395604 158 7628ft 128kts
03-Dec-18 09:50 36.053541 -119.379071 159 8333ft 129kts
03-Dec-18 09:51 36.020542 -119.362473 160 9032ft 128kts
03-Dec-18 09:52 35.987811 -119.345964 161 9733ft 126kts
03-Dec-18 09:53 35.955904 -119.329885 163 10432ft 124kts
03-Dec-18 09:54 35.922899 -119.313145 163 11144ft 131kts
03-Dec-18 09:55 35.889250 -119.296080 164 11836ft 131kts
03-Dec-18 09:56 35.855869 -119.279300 166 12517ft 130kts
03-Dec-18 09:57 35.820990 -119.262251 166 13012ft 149kts
03-Dec-18 09:58 35.778876 -119.241832 166 13009ft 170kts
03-Dec-18 09:59 35.734765 -119.221706 165 13007ft 168kts
03-Dec-18 10:00 35.691370 -119.200360 164 13007ft 169kts
03-Dec-18 10:01 35.647833 -119.178634 164 13006ft 169kts
03-Dec-18 10:02 35.604449 -119.156926 164 13002ft 169kts
03-Dec-18 10:03 35.561149 -119.135277 164 12997ft 169kts
03-Dec-18 10:04 35.517521 -119.113581 164 12990ft 169kts
03-Dec-18 10:05 35.475785 -119.087359 141 12988ft 175kts
03-Dec-18 10:06 35.440271 -119.046595 141 12982ft 175kts
03-Dec-18 10:07 35.404516 -119.005881 141 12981ft 176kts
03-Dec-18 10:08 35.368740 -118.964970 141 12982ft 176kts
03-Dec-18 10:09 35.332937 -118.924090 141 12989ft 176kts
03-Dec-18 10:10 35.297518 -118.883750 140 13000ft 176kts
03-Dec-18 10:11 35.261597 -118.842907 141 13001ft 177kts
03-Dec-18 10:12 35.225182 -118.801762 140 13001ft 179kts
03-Dec-18 10:13 35.186112 -118.764971 157 12958ft 177kts
03-Dec-18 10:14 35.141159 -118.740922 165 12878ft 176kts
03-Dec-18 10:15 35.094838 -118.721852 168 12813ft 175kts
03-Dec-18 10:16 35.048405 -118.704956 171 12760ft 173kts
03-Dec-18 10:17 35.000740 -118.688179 170 12054ft 182kts
03-Dec-18 10:18 34.952881 -118.671353 170 11168ft 177kts
03-Dec-18 10:19 34.906047 -118.655018 169 10719ft 173kts
03-Dec-18 10:20 34.860332 -118.639038 169 10732ft 170kts
03-Dec-18 10:21 34.815319 -118.623280 169 10792ft 168kts
03-Dec-18 10:22 34.770652 -118.607667 169 10862ft 167kts
03-Dec-18 10:23 34.726080 -118.592111 170 10941ft 166kts
03-Dec-18 10:24 34.681702 -118.576425 162 10974ft 170kts
03-Dec-18 10:25 34.638963 -118.551009 159 10985ft 173kts
03-Dec-18 10:26 34.595590 -118.525302 159 10978ft 174kts
03-Dec-18 10:27 34.552304 -118.499725 159 11028ft 173kts
03-Dec-18 10:28 34.509137 -118.474200 159 11024ft 174kts
03-Dec-18 10:29 34.465557 -118.448450 159 11019ft 175kts
03-Dec-18 10:30 34.421903 -118.422762 159 11014ft 175kts
03-Dec-18 10:31 34.378242 -118.397062 159 11010ft 175kts
03-Dec-18 10:32 34.334366 -118.371194 158 10709ft 177kts
03-Dec-18 10:33 34.290937 -118.345668 158 9840ft 177kts
03-Dec-18 10:34 34.246826 -118.319712 157 9011ft 172kts
03-Dec-18 10:35 34.205947 -118.295746 157 8991ft 163kts
03-Dec-18 10:36 34.164868 -118.271713 156 8992ft 165kts
03-Dec-18 10:37 34.124378 -118.248540 161 8993ft 165kts
03-Dec-18 10:38 34.082667 -118.228046 158 8994ft 166kts
03-Dec-18 10:39 34.040741 -118.204737 156 8996ft 166kts
03-Dec-18 10:40 33.999177 -118.180610 155 8997ft 168kts
03-Dec-18 10:41 33.953996 -118.175130 190 8484ft 170kts
03-Dec-18 10:42 33.907138 -118.182507 190 7599ft 171kts
03-Dec-18 10:43 33.861081 -118.190527 190 6993ft 159kts
03-Dec-18 10:44 33.818370 -118.197884 190 6993ft 153kts
03-Dec-18 10:45 33.776437 -118.201239 149 6995ft 153kts
03-Dec-18 10:46 33.751899 -118.160541 120 7000ft 151kts
03-Dec-18 10:47 33.727750 -118.115723 119 6114ft 164kts
03-Dec-18 10:48 33.703981 -118.071873 119 5205ft 150kts
03-Dec-18 10:49 33.687827 -118.030522 90 4999ft 131kts
03-Dec-18 10:50 33.685848 -117.987213 89 4998ft 127kts
03-Dec-18 10:51 33.683193 -117.945482 93 4042ft 135kts
03-Dec-18 10:52 33.694391 -117.905688 38 2597ft 140kts
03-Dec-18 10:53 33.717117 -117.874169 74 1735ft 109kts
03-Dec-18 10:54 33.700118 -117.857887 170 925ft 87kts
03-Dec-18 10:55 33.677838 -117.867270 209 61ft 64kts
03-Dec-18 10:56 33.674190 -117.871129 245 61ft 0kts
03-Dec-18 10:57 33.672612 -117.872272 207 61ft 10kts
03-Dec-18 10:58 33.672553 -117.873464 28 61ft 0kts
03-Dec-18 10:59 33.672553 -117.873464 28 61ft 0kts
03-Dec-18 11:00 33.672553 -117.873464 28 61ft 0kts
03-Dec-18 11:01 33.672553 -117.873464 28 61ft 0kts
03-Dec-18 11:02 33.672553 -117.873464 28 61ft 0kts

Navigation Log

Ident Type
Flight plan parsing failed, navigation log unavailable